Time;durP1;ratioP1;P1;durP2;ratioP2;P2;SDS_P1;SDS_P2;PMS_P1;PMS_P2;Temp;Humidity;BMP_temperature;BMP_pressure;BME280_temperature;BME280_humidity;BME280_pressure;Samples;Min_cycle;Max_cycle;Signal;HPM_P1;HPM_P2
2022/07/27 00:02:18;;;;;;;6.07;2.80;;;;;;;29.88;54.05;100680.16;5019957;28;66076;-32
2022/07/27 00:04:50;;;;;;;2.75;2.55;;;;;;;29.95;54.16;100690.91;4954455;28;69964;-33
2022/07/27 00:07:21;;;;;;;4.55;2.67;;;;;;;29.98;54.60;100706.72;4958844;28;65982;-34
2022/07/27 00:09:53;;;;;;;6.00;5.40;;;;;;;30.04;58.46;100703.16;5021907;28;70917;-34
2022/07/27 00:12:25;;;;;;;42.08;32.83;;;;;;;30.09;61.40;100708.72;4961756;28;65265;-33
2022/07/27 00:14:58;;;;;;;43.00;34.10;;;;;;;30.16;63.18;100698.66;4954865;28;69253;-32
2022/07/27 00:17:29;;;;;;;46.65;33.38;;;;;;;30.22;64.18;100708.63;5025698;28;66337;-32
2022/07/27 00:20:01;;;;;;;34.50;28.05;;;;;;;30.16;65.54;100690.56;4958178;28;70274;-32
2022/07/27 00:22:32;;;;;;;;;;;;;;;30.04;67.75;100701.25;4958376;28;66033;-31
2022/07/27 00:25:03;;;;;;;19.67;17.60;;;;;;;30.25;67.51;100694.66;4962787;28;69867;-32
2022/07/27 00:27:36;;;;;;;19.20;15.73;;;;;;;30.31;67.59;100702.97;4960582;28;65970;-30
2022/07/27 00:30:08;;;;;;;17.88;14.93;;;;;;;30.35;66.95;100698.78;4955261;28;69274;-37
2022/07/27 00:32:39;;;;;;;18.42;12.15;;;;;;;30.43;63.86;100701.22;4950698;28;66368;-35
2022/07/27 00:35:12;;;;;;;20.17;12.15;;;;;;;30.48;62.96;100706.78;4921987;28;70719;-34
2022/07/27 00:37:44;;;;;;;25.63;12.38;;;;;;;30.55;64.21;100710.25;5019932;28;66369;-35
2022/07/27 00:40:15;;;;;;;16.45;12.98;;;;;;;30.60;64.97;100709.59;5022843;28;69269;-34
2022/07/27 00:42:49;;;;;;;19.00;12.85;;;;;;;30.72;63.90;100711.31;4956132;28;66306;-34
2022/07/27 00:45:21;;;;;;;13.85;11.75;;;;;;;30.76;64.28;100705.44;4954786;28;69934;-35
2022/07/27 00:47:53;;;;;;;18.48;12.02;;;;;;;30.78;63.89;100709.59;4956148;28;65543;-34
2022/07/27 00:50:25;;;;;;;20.58;11.25;;;;;;;30.85;64.36;100704.16;4955270;28;69883;-35
2022/07/27 00:52:56;;;;;;;11.73;10.52;;;;;;;30.80;63.70;100695.88;4952440;28;66123;-35
2022/07/27 00:55:32;;;;;;;9.60;8.90;;;;;;;30.97;62.90;100712.38;4954472;28;69359;-37
2022/07/27 00:58:10;;;;;;;10.90;9.82;;;;;;;31.00;62.86;100712.72;4954827;28;66617;-36
2022/07/27 01:00:42;;;;;;;10.82;9.50;;;;;;;31.03;63.41;100706.88;4953260;28;70012;-37
2022/07/27 01:03:13;;;;;;;14.23;10.38;;;;;;;31.05;62.90;100706.66;4952002;28;65708;-34
2022/07/27 01:05:46;;;;;;;;;;;;;;;30.78;65.26;100714.19;4956858;28;70413;-35
2022/07/27 01:08:19;;;;;;;10.70;9.73;;;;;;;31.10;63.01;100718.47;4954697;28;65909;-35
2022/07/27 01:11:02;;;;;;;11.15;9.30;;;;;;;31.16;62.45;100712.13;4950546;28;70031;-36
2022/07/27 01:13:35;;;;;;;10.90;9.55;;;;;;;31.21;62.70;100702.53;4952035;28;65306;-35
2022/07/27 01:16:07;;;;;;;12.07;10.55;;;;;;;31.27;62.31;100715.16;4954626;28;69593;-35
2022/07/27 01:18:39;;;;;;;10.85;9.85;;;;;;;31.29;62.38;100716.59;4952991;28;66031;-36
2022/07/27 01:21:11;;;;;;;10.82;9.90;;;;;;;31.33;62.30;100722.38;4957662;28;70495;-35
2022/07/27 01:23:42;;;;;;;10.50;9.55;;;;;;;31.31;61.98;100721.75;4954326;28;66151;-35
2022/07/27 01:26:14;;;;;;;9.93;9.20;;;;;;;31.28;61.84;100719.50;4957121;28;69008;-36
2022/07/27 01:28:46;;;;;;;10.70;9.60;;;;;;;31.37;61.79;100729.88;4957458;28;66996;-34
2022/07/27 01:31:18;;;;;;;10.98;9.93;;;;;;;31.42;61.71;100731.03;4956104;28;70132;-35
2022/07/27 01:33:59;;;;;;;10.57;9.55;;;;;;;31.44;61.73;100731.66;4954111;28;66104;-35
2022/07/27 01:36:30;;;;;;;10.90;9.13;;;;;;;31.39;61.30;100732.31;4955394;28;69213;-35
2022/07/27 01:39:04;;;;;;;11.27;9.95;;;;;;;31.45;61.35;100733.31;4956125;28;66638;-36
2022/07/27 01:41:40;;;;;;;11.70;9.77;;;;;;;31.52;61.06;100747.63;4952045;28;70272;-35
2022/07/27 01:44:12;;;;;;;10.85;9.93;;;;;;;31.52;61.05;100751.16;4951601;28;65265;-36
2022/07/27 01:46:48;;;;;;;10.90;9.90;;;;;;;31.56;61.17;100749.63;4956452;28;69299;-35
2022/07/27 01:49:29;;;;;;;10.23;9.32;;;;;;;31.59;60.83;100749.19;4954422;28;67193;-35
2022/07/27 01:52:01;;;;;;;12.20;10.35;;;;;;;31.61;60.84;100741.63;4956949;28;70149;-36
2022/07/27 01:54:38;;;;;;;11.50;10.63;;;;;;;31.66;60.55;100742.84;4954203;28;65847;-38
2022/07/27 01:57:09;;;;;;;11.75;10.63;;;;;;;31.66;60.63;100748.28;4956478;28;70152;-37
2022/07/27 01:59:48;;;;;;;10.63;9.82;;;;;;;31.69;60.54;100742.38;4956173;28;65728;-35
2022/07/27 02:02:20;;;;;;;11.30;10.20;;;;;;;31.72;60.40;100750.88;4952600;28;69200;-35
2022/07/27 02:04:52;;;;;;;11.52;10.23;;;;;;;31.72;60.26;100741.94;4956936;28;66247;-35
2022/07/27 02:07:24;;;;;;;10.23;9.43;;;;;;;31.78;60.35;100749.13;4955480;28;70076;-35
2022/07/27 02:09:57;;;;;;;12.07;10.77;;;;;;;31.73;60.19;100740.84;4956706;28;66183;-34
2022/07/27 02:12:35;;;;;;;11.45;10.30;;;;;;;31.83;60.02;100755.53;4954747;28;70628;-35
2022/07/27 02:15:12;;;;;;;11.40;10.38;;;;;;;31.70;59.81;100722.34;5009256;28;66773;-36
2022/07/27 02:17:48;;;;;;;11.18;10.18;;;;;;;31.55;59.84;100692.94;4952018;28;70261;-37
2022/07/27 02:20:23;;;;;;;11.23;10.30;;;;;;;31.94;59.66;100755.84;4949310;28;66674;-35
2022/07/27 02:23:00;;;;;;;11.48;10.57;;;;;;;31.86;59.47;100732.53;4956400;28;69370;-36
2022/07/27 02:25:36;;;;;;;10.68;9.82;;;;;;;31.97;59.68;100756.19;4956565;28;66147;-36
2022/07/27 02:28:08;;;;;;;11.18;10.05;;;;;;;31.98;59.40;100744.31;4955744;28;70491;-35
2022/07/27 02:30:42;;;;;;;11.57;10.52;;;;;;;32.03;59.35;100749.84;5021829;28;66724;-35
2022/07/27 02:33:14;;;;;;;11.38;10.27;;;;;;;32.04;59.35;100745.28;4945224;28;70316;-36
2022/07/27 02:36:01;;;;;;;10.73;9.73;;;;;;;32.09;59.21;100744.56;4951693;28;66073;-36
2022/07/27 02:38:32;;;;;;;12.90;10.32;;;;;;;32.10;59.10;100744.34;4954121;28;70923;-36
2022/07/27 02:41:04;;;;;;;10.68;9.55;;;;;;;32.12;58.57;100739.47;4956965;28;66833;-34
2022/07/27 02:43:39;;;;;;;11.50;10.60;;;;;;;32.16;59.00;100732.53;5018015;28;70217;-35
2022/07/27 02:46:10;;;;;;;10.40;9.60;;;;;;;32.18;58.87;100735.84;4952909;28;65801;-35
2022/07/27 02:48:42;;;;;;;10.85;9.85;;;;;;;32.22;58.69;100730.78;4952150;28;69174;-35
2022/07/27 02:51:15;;;;;;;10.85;10.00;;;;;;;32.25;58.74;100730.31;4951414;28;66785;-36
2022/07/27 02:53:49;;;;;;;11.80;10.77;;;;;;;32.25;58.95;100723.00;5017212;28;69388;-35
2022/07/27 02:56:23;;;;;;;10.55;9.85;;;;;;;32.31;58.33;100734.81;4948958;28;65546;-36
2022/07/27 02:58:56;;;;;;;11.90;9.60;;;;;;;32.33;58.33;100732.69;4949683;28;69762;-36
2022/07/27 03:01:30;;;;;;;11.68;10.77;;;;;;;32.24;58.45;100712.38;4951205;28;65579;-34
2022/07/27 03:04:01;;;;;;;10.73;9.90;;;;;;;32.35;58.37;100725.16;4954256;28;69264;-35
2022/07/27 03:06:35;;;;;;;10.88;10.00;;;;;;;32.29;58.32;100715.22;5033584;28;65630;-34
2022/07/27 03:09:09;;;;;;;10.70;9.93;;;;;;;32.43;58.03;100721.25;4952511;28;69100;-38
2022/07/27 03:11:41;;;;;;;12.02;9.75;;;;;;;32.18;57.99;100680.72;5006682;28;65961;-35
2022/07/27 03:14:19;;;;;;;9.82;9.20;;;;;;;32.39;58.29;100703.78;5019781;28;70076;-35
2022/07/27 03:16:57;;;;;;;11.00;9.38;;;;;;;32.47;58.16;100707.00;5007995;28;65598;-36
2022/07/27 03:19:30;;;;;;;10.27;9.23;;;;;;;32.52;57.96;100713.63;4982510;28;69301;-35
2022/07/27 03:22:09;;;;;;;10.80;9.70;;;;;;;32.53;57.99;100709.84;5014461;28;66486;-35
2022/07/27 03:24:49;;;;;;;10.05;9.32;;;;;;;32.55;57.87;100703.13;4949392;28;70003;-37
2022/07/27 03:27:29;;;;;;;10.02;9.13;;;;;;;32.46;57.84;100683.63;4954907;28;67183;-36
2022/07/27 03:30:05;;;;;;;9.68;8.73;;;;;;;32.56;58.01;100698.50;5015811;28;70148;-37
2022/07/27 03:32:39;;;;;;;11.10;9.15;;;;;;;32.60;57.92;100695.09;5005675;28;65367;-35
2022/07/27 03:35:14;;;;;;;10.18;9.32;;;;;;;32.54;57.69;100684.31;4951810;28;70088;-36
2022/07/27 03:37:56;;;;;;;9.48;8.68;;;;;;;32.55;57.80;100686.81;5012680;28;65277;-35
2022/07/27 03:40:34;;;;;;;9.93;9.32;;;;;;;32.35;57.64;100645.59;4956045;28;70501;-35
2022/07/27 03:43:20;;;;;;;9.65;8.88;;;;;;;32.68;57.44;100702.88;5000639;28;66353;-35
2022/07/27 03:45:54;;;;;;;9.65;9.05;;;;;;;32.71;57.66;100698.88;5022322;28;70056;-35
2022/07/27 03:48:28;;;;;;;9.25;8.55;;;;;;;32.74;57.28;100701.09;4957350;28;66355;-35
2022/07/27 03:51:13;;;;;;;10.52;9.63;;;;;;;32.76;57.28;100698.13;4956426;28;70109;-35
2022/07/27 03:53:48;;;;;;;9.52;8.82;;;;;;;32.78;57.19;100691.41;5017284;28;65589;-35
2022/07/27 03:56:26;;;;;;;9.88;9.18;;;;;;;32.78;57.16;100694.13;4954912;28;69599;-35
2022/07/27 03:59:00;;;;;;;10.52;9.63;;;;;;;32.84;57.22;100693.16;5007670;28;66098;-35
2022/07/27 04:01:34;;;;;;;10.68;9.57;;;;;;;32.85;57.20;100685.88;4956422;28;69983;-36
2022/07/27 04:04:12;;;;;;;9.68;8.77;;;;;;;32.84;57.15;100682.28;4956544;28;66727;-35
2022/07/27 04:06:52;;;;;;;13.30;9.13;;;;;;;32.83;56.93;100677.94;4957663;28;70152;-35
2022/07/27 04:09:33;;;;;;;9.80;8.85;;;;;;;32.82;57.27;100665.44;4956315;28;66218;-36
2022/07/27 04:12:17;;;;;;;9.40;8.65;;;;;;;32.85;57.33;100678.53;4954916;28;69795;-35
2022/07/27 04:14:59;;;;;;;9.82;9.05;;;;;;;32.90;56.84;100684.09;4955232;28;66568;-35
2022/07/27 04:17:38;;;;;;;10.35;9.35;;;;;;;32.91;57.13;100679.47;4958038;28;69721;-37
2022/07/27 04:20:26;;;;;;;10.20;9.40;;;;;;;32.88;57.25;100669.91;5006889;28;66335;-35
2022/07/27 04:22:57;;;;;;;;;;;;;;;32.60;57.91;100681.50;4958979;28;70192;-37
2022/07/27 04:25:34;;;;;;;9.43;8.57;;;;;;;32.89;57.12;100666.09;4947974;28;67009;-35
2022/07/27 04:28:07;;;;;;;10.80;9.00;;;;;;;32.96;57.09;100667.88;4955706;28;70306;-35
2022/07/27 04:30:46;;;;;;;10.13;9.32;;;;;;;32.97;56.84;100666.81;4956702;28;64936;-35
2022/07/27 04:33:23;;;;;;;9.68;8.80;;;;;;;33.00;56.96;100664.47;4938728;28;70578;-35
2022/07/27 04:36:10;;;;;;;10.07;9.15;;;;;;;32.98;57.01;100652.16;4995763;28;66329;-37
2022/07/27 04:38:52;;;;;;;10.68;9.68;;;;;;;32.84;57.05;100625.25;5022558;28;70017;-36
2022/07/27 04:41:30;;;;;;;9.63;8.68;;;;;;;33.05;57.15;100658.31;4954228;28;65511;-36
2022/07/27 04:44:06;;;;;;;10.82;9.32;;;;;;;33.07;56.82;100656.16;5000610;28;70117;-35
2022/07/27 04:46:50;;;;;;;9.68;8.80;;;;;;;33.08;56.85;100646.97;4955101;28;65963;-36
2022/07/27 04:49:25;;;;;;;10.38;9.25;;;;;;;33.10;56.88;100639.41;4956738;28;70191;-35
2022/07/27 04:52:00;;;;;;;9.73;9.02;;;;;;;33.14;56.86;100640.56;4949783;28;65533;-36
2022/07/27 04:54:34;;;;;;;10.18;9.30;;;;;;;33.17;56.58;100633.81;4955442;28;70179;-35
2022/07/27 04:57:09;;;;;;;14.80;9.00;;;;;;;33.21;56.76;100640.41;4981949;28;67079;-35
2022/07/27 04:59:53;;;;;;;9.35;8.65;;;;;;;33.21;56.91;100638.53;4949839;28;70314;-35
2022/07/27 05:02:30;;;;;;;13.30;9.18;;;;;;;33.22;56.64;100623.88;4955855;28;66478;-36
2022/07/27 05:05:10;;;;;;;9.95;8.90;;;;;;;33.25;56.84;100628.81;5015558;28;70127;-35
2022/07/27 05:07:53;;;;;;;12.07;10.85;;;;;;;33.20;56.66;100617.03;5001745;28;66100;-35
2022/07/27 05:10:46;;;;;;;9.38;8.70;;;;;;;33.30;56.52;100618.06;4954425;28;69715;-35
2022/07/27 05:13:27;;;;;;;9.75;8.93;;;;;;;33.28;56.63;100614.75;4956979;28;66141;-36
2022/07/27 05:16:10;;;;;;;9.82;9.00;;;;;;;33.01;56.36;100560.13;4954958;28;69545;-36
2022/07/27 05:19:02;;;;;;;9.93;9.07;;;;;;;33.09;55.94;100567.09;4958306;28;65873;-35
2022/07/27 05:21:38;;;;;;;9.55;8.88;;;;;;;33.38;56.37;100614.13;4956716;28;70130;-36
2022/07/27 05:24:36;;;;;;;11.73;8.70;;;;;;;33.34;56.29;100604.78;4956070;28;66264;-35
2022/07/27 05:27:23;;;;;;;10.05;9.18;;;;;;;33.38;56.46;100605.97;4994109;28;69989;-37
2022/07/27 05:30:28;;;;;;;9.90;9.05;;;;;;;33.41;56.39;100599.22;4955030;28;65727;-35
2022/07/27 05:33:05;;;;;;;10.73;9.85;;;;;;;33.42;56.42;100603.56;5014799;28;69914;-35
2022/07/27 05:35:49;;;;;;;9.93;9.00;;;;;;;33.43;56.32;100600.59;4955014;28;64954;-34
2022/07/27 05:38:27;;;;;;;10.18;9.38;;;;;;;33.41;56.40;100600.03;5016336;28;69357;-35
2022/07/27 05:41:16;;;;;;;10.18;9.38;;;;;;;33.47;56.37;100595.50;4956897;28;65580;-35
2022/07/27 05:44:09;;;;;;;9.70;9.00;;;;;;;33.48;56.30;100597.16;4955722;28;69668;-34
2022/07/27 05:46:47;;;;;;;11.02;10.20;;;;;;;33.47;56.39;100590.06;4945361;28;66471;-36
2022/07/27 05:49:25;;;;;;;10.43;9.57;;;;;;;33.48;56.29;100594.44;5015265;28;70567;-34
2022/07/27 05:52:11;;;;;;;9.70;9.20;;;;;;;33.48;56.32;100591.72;4959341;28;66525;-37
2022/07/27 05:55:14;;;;;;;10.50;9.57;;;;;;;33.48;56.68;100592.53;4959856;28;70297;-35
2022/07/27 05:58:14;;;;;;;10.77;10.02;;;;;;;33.44;56.03;100591.38;4974108;28;65419;-34
2022/07/27 06:00:55;;;;;;;11.68;9.90;;;;;;;33.48;56.48;100575.41;4958306;28;69564;-36
2022/07/27 06:03:34;;;;;;;10.68;9.85;;;;;;;33.18;56.12;100527.56;5019887;28;66890;-35
2022/07/27 06:09:16;;;;;;;11.80;10.95;;;;;;;33.51;56.42;100566.75;5001839;28;66057;-36
2022/07/27 06:11:58;;;;;;;12.15;11.13;;;;;;;33.51;56.62;100562.13;4954435;28;69956;-37
2022/07/27 06:14:35;;;;;;;13.77;11.82;;;;;;;33.52;56.39;100554.81;5038147;28;66854;-35
2022/07/27 06:17:11;;;;;;;13.13;12.02;;;;;;;33.53;56.34;100553.78;4953861;28;69853;-35
2022/07/27 06:19:48;;;;;;;13.25;11.98;;;;;;;33.51;56.50;100553.97;5004884;28;66928;-34
2022/07/27 06:23:07;;;;;;;12.65;11.65;;;;;;;33.43;56.30;100559.00;5023884;28;69788;-35
2022/07/27 06:25:46;;;;;;;14.63;12.65;;;;;;;33.50;56.51;100562.38;4958611;28;65133;-36
2022/07/27 06:28:37;;;;;;;14.95;13.40;;;;;;;33.45;56.42;100565.00;4956557;28;69388;-34
2022/07/27 06:31:30;;;;;;;14.75;13.25;;;;;;;33.20;56.70;100517.28;4952766;28;65979;-34
2022/07/27 06:34:05;;;;;;;14.82;13.57;;;;;;;33.50;56.44;100560.50;5030039;28;69330;-35
2022/07/27 06:36:51;;;;;;;15.07;13.75;;;;;;;33.55;56.50;100546.19;5009549;28;65799;-36
2022/07/27 06:39:33;;;;;;;14.15;12.93;;;;;;;33.54;56.51;100530.94;4959077;28;69724;-35
2022/07/27 06:42:07;;;;;;;16.95;13.63;;;;;;;33.55;56.51;100527.16;4979466;28;66074;-35
2022/07/27 06:45:03;;;;;;;14.85;13.55;;;;;;;33.54;56.54;100520.91;4958738;28;69570;-36
2022/07/27 06:47:39;;;;;;;16.55;14.93;;;;;;;33.53;56.52;100507.53;5016843;28;65804;-36
2022/07/27 06:50:22;;;;;;;15.23;13.70;;;;;;;33.53;56.64;100512.97;5017290;28;69885;-36
2022/07/27 06:53:22;;;;;;;16.02;14.65;;;;;;;33.56;56.75;100513.28;5009621;28;65617;-36
2022/07/27 06:56:11;;;;;;;15.55;14.23;;;;;;;33.57;56.84;100514.13;4955762;28;70640;-35
2022/07/27 06:58:52;;;;;;;16.20;14.50;;;;;;;33.58;56.65;100515.78;5012622;28;66256;-37
2022/07/27 07:01:27;;;;;;;16.20;14.73;;;;;;;33.60;56.77;100519.09;4957646;28;69199;-35
2022/07/27 07:04:07;;;;;;;16.33;14.70;;;;;;;33.55;56.57;100499.97;5022711;28;66605;-36
2022/07/27 07:06:49;;;;;;;17.17;15.77;;;;;;;33.59;56.67;100495.66;4959393;28;69893;-37
2022/07/27 07:09:31;;;;;;;16.65;15.25;;;;;;;33.60;56.66;100491.88;5023226;28;65527;-37
2022/07/27 07:12:10;;;;;;;15.57;14.35;;;;;;;33.60;56.83;100486.44;4996642;28;70488;-36
2022/07/27 07:14:56;;;;;;;15.45;13.93;;;;;;;33.25;56.79;100422.25;4983583;28;66241;-35
2022/07/27 07:17:36;;;;;;;14.90;13.60;;;;;;;33.59;56.65;100484.78;5002111;28;71136;-35
2022/07/27 07:20:10;;;;;;;15.75;14.20;;;;;;;33.62;56.71;100476.13;4986067;28;66193;-34
2022/07/27 07:22:44;;;;;;;15.43;14.30;;;;;;;33.61;56.88;100470.94;4986231;28;69550;-35
2022/07/27 07:25:17;;;;;;;14.68;13.55;;;;;;;33.62;56.68;100473.41;4962729;28;65781;-34
2022/07/27 07:27:58;;;;;;;15.85;14.25;;;;;;;33.62;56.80;100465.25;5001837;28;70093;-36
2022/07/27 07:30:49;;;;;;;15.60;14.18;;;;;;;33.62;56.98;100450.84;5000751;28;66624;-35
2022/07/27 07:33:36;;;;;;;15.93;14.43;;;;;;;33.62;56.90;100446.22;4989017;28;69213;-35
2022/07/27 07:36:09;;;;;;;14.63;13.25;;;;;;;33.63;56.67;100442.44;4986717;28;66433;-35
2022/07/27 07:38:48;;;;;;;13.85;12.80;;;;;;;33.63;56.90;100437.00;5002931;28;69488;-34
2022/07/27 07:41:26;;;;;;;14.43;12.93;;;;;;;33.65;56.86;100434.00;4978677;28;66553;-35
2022/07/27 07:44:00;;;;;;;14.48;13.25;;;;;;;33.64;56.68;100444.06;4966105;28;69740;-34
2022/07/27 07:46:38;;;;;;;14.00;12.80;;;;;;;33.64;56.76;100444.06;4999979;28;66825;-35
2022/07/27 07:49:16;;;;;;;13.75;12.65;;;;;;;33.64;56.72;100446.78;4970957;28;69397;-36
2022/07/27 07:52:12;;;;;;;14.05;12.98;;;;;;;33.44;56.73;100413.84;5003070;28;66913;-34
2022/07/27 07:54:57;;;;;;;14.48;13.15;;;;;;;33.63;56.80;100437.00;4987448;28;70410;-37
2022/07/27 07:57:28;;;;;;;;;;;;;;;33.32;57.64;100433.78;4962919;28;65678;-36
2022/07/27 08:00:05;;;;;;;14.07;12.80;;;;;;;33.59;56.93;100435.84;4965119;28;71007;-35
2022/07/27 08:02:45;;;;;;;15.18;12.70;;;;;;;33.64;56.91;100438.63;5021309;28;66610;-37
2022/07/27 08:05:22;;;;;;;14.43;12.98;;;;;;;33.64;56.72;100441.34;4963113;28;70531;-36
2022/07/27 08:08:09;;;;;;;14.20;12.73;;;;;;;33.64;57.26;100449.50;4960766;28;65542;-35
2022/07/27 08:10:41;;;;;;;14.18;13.18;;;;;;;33.65;57.22;100464.75;4959336;28;70047;-35
2022/07/27 08:13:15;;;;;;;13.85;12.35;;;;;;;33.63;57.02;100464.19;4958829;28;66249;-36
2022/07/27 08:15:54;;;;;;;13.63;12.55;;;;;;;33.61;57.18;100466.34;4964506;28;43172;-35
2022/07/27 08:18:29;;;;;;;13.98;12.98;;;;;;;33.66;57.23;100474.56;4960633;28;65697;-36
2022/07/27 08:21:08;;;;;;;13.20;12.20;;;;;;;33.65;56.73;100462.03;4963240;28;70436;-36
2022/07/27 08:23:55;;;;;;;13.50;12.30;;;;;;;33.66;56.97;100452.81;4959287;28;66312;-35
2022/07/27 08:26:33;;;;;;;15.00;12.65;;;;;;;33.66;57.19;100452.81;4957835;28;69986;-36
2022/07/27 08:29:16;;;;;;;14.00;12.57;;;;;;;33.66;57.08;100460.97;4954805;28;65505;-35
2022/07/27 08:31:52;;;;;;;14.43;12.90;;;;;;;33.66;57.11;100463.69;4960732;28;71185;-35
2022/07/27 08:34:34;;;;;;;14.75;12.60;;;;;;;33.62;57.11;100467.16;5020867;28;65703;-35
2022/07/27 08:37:07;;;;;;;13.73;12.07;;;;;;;33.64;56.98;100465.00;4954674;28;69494;-35
2022/07/27 08:39:47;;;;;;;13.40;12.25;;;;;;;33.67;57.14;100476.22;4959509;28;65628;-36
2022/07/27 08:42:44;;;;;;;15.95;11.65;;;;;;;33.65;57.14;100478.34;4955677;28;69935;-37
2022/07/27 08:45:22;;;;;;;12.05;10.95;;;;;;;33.51;57.09;100449.81;5010760;28;66699;-35
2022/07/27 08:47:57;;;;;;;12.25;11.30;;;;;;;33.64;57.16;100474.00;4960424;28;70277;-36
2022/07/27 08:50:47;;;;;;;14.65;10.93;;;;;;;33.64;57.57;100474.00;5037788;28;66131;-36
2022/07/27 08:53:22;;;;;;;11.90;11.02;;;;;;;33.61;57.24;100460.88;4959427;28;70359;-35
2022/07/27 08:56:05;;;;;;;14.93;11.50;;;;;;;33.64;57.29;100457.66;4952173;28;66143;-37
2022/07/27 08:58:44;;;;;;;11.38;10.38;;;;;;;33.41;57.38;100428.75;4953340;28;69990;-34
2022/07/27 09:01:18;;;;;;;12.57;11.10;;;;;;;33.63;57.15;100469.63;4957831;28;66226;-34
2022/07/27 09:03:53;;;;;;;12.95;11.25;;;;;;;33.62;57.35;100467.97;4958034;28;69963;-36
2022/07/27 09:06:43;;;;;;;11.60;10.70;;;;;;;33.48;57.54;100450.31;5005068;28;65363;-35
2022/07/27 09:09:23;;;;;;;13.52;11.27;;;;;;;33.60;57.58;100464.69;4954132;28;69936;-35
2022/07/27 09:12:09;;;;;;;13.05;10.43;;;;;;;33.51;57.50;100460.69;4958033;28;65612;-36
2022/07/27 09:14:42;;;;;;;14.27;10.05;;;;;;;33.61;57.76;100476.38;4960456;28;69211;-35
2022/07/27 09:17:43;;;;;;;16.05;10.77;;;;;;;33.38;57.70;100446.38;4952278;28;66025;-35
2022/07/27 09:20:20;;;;;;;9.93;9.18;;;;;;;33.32;57.53;100436.50;4955509;28;69479;-37
2022/07/27 09:22:57;;;;;;;10.80;9.80;;;;;;;33.59;57.54;100472.00;4956797;28;66766;-36
2022/07/27 09:25:32;;;;;;;12.00;10.00;;;;;;;33.59;57.58;100482.06;5024898;28;70458;-35
2022/07/27 09:28:31;;;;;;;10.88;9.95;;;;;;;33.56;57.63;100479.84;4959256;28;66077;-36
2022/07/27 09:31:10;;;;;;;13.90;9.88;;;;;;;33.55;57.45;100468.16;5022414;28;70517;-36
2022/07/27 09:33:52;;;;;;;11.50;10.40;;;;;;;33.53;57.87;100483.06;5020238;28;66734;-36
2022/07/27 09:36:28;;;;;;;10.52;9.52;;;;;;;33.55;57.95;100480.94;4952107;28;69796;-36
2022/07/27 09:39:06;;;;;;;10.23;9.25;;;;;;;33.54;57.86;100481.97;4956260;28;66746;-35
2022/07/27 09:41:47;;;;;;;9.93;9.10;;;;;;;33.55;57.79;100478.22;4960322;28;71063;-35
2022/07/27 09:44:40;;;;;;;10.15;9.25;;;;;;;33.43;58.20;100485.56;4966307;28;66249;-35
2022/07/27 09:47:28;;;;;;;9.30;8.50;;;;;;;33.52;57.67;100484.97;4952136;28;69196;-35
2022/07/27 09:50:19;;;;;;;11.15;10.23;;;;;;;33.34;58.40;100483.28;4955511;28;66299;-34
2022/07/27 09:52:51;;;;;;;10.20;9.40;;;;;;;33.51;57.75;100498.75;4951434;28;70372;-35
2022/07/27 09:55:26;;;;;;;9.80;8.98;;;;;;;33.50;58.12;100499.84;4958974;28;65744;-35
2022/07/27 09:57:58;;;;;;;9.98;9.13;;;;;;;33.48;57.70;100489.19;4956635;28;70358;-36
2022/07/27 10:00:30;;;;;;;10.05;9.32;;;;;;;33.45;57.96;100488.88;4949203;28;66649;-36
2022/07/27 10:03:04;;;;;;;10.65;9.90;;;;;;;33.47;58.11;100498.44;4952121;28;70151;-35
2022/07/27 10:05:36;;;;;;;11.60;9.93;;;;;;;33.21;57.88;100455.59;4958132;28;66809;-35
2022/07/27 10:08:09;;;;;;;13.15;10.02;;;;;;;33.48;58.02;100497.34;4951368;28;69572;-35
2022/07/27 10:10:44;;;;;;;11.40;9.35;;;;;;;33.48;58.12;100499.25;4955267;28;66512;-35
2022/07/27 10:13:18;;;;;;;12.82;9.77;;;;;;;33.47;58.29;100513.94;4953388;28;70399;-36
2022/07/27 10:15:52;;;;;;;11.93;9.68;;;;;;;33.46;58.19;100501.41;4958237;28;65684;-35
2022/07/27 10:18:41;;;;;;;9.65;9.02;;;;;;;33.44;58.10;100506.28;4952426;28;70459;-35
2022/07/27 10:21:25;;;;;;;11.40;10.00;;;;;;;33.44;58.22;100507.09;4956393;28;66102;-37
2022/07/27 10:24:10;;;;;;;11.05;9.70;;;;;;;33.16;58.25;100464.50;4957430;28;70116;-36
2022/07/27 10:26:46;;;;;;;11.32;9.98;;;;;;;33.34;58.82;100498.75;4958052;28;66546;-36
2022/07/27 10:29:22;;;;;;;24.67;10.00;;;;;;;33.43;59.00;100515.50;4952799;28;70408;-36
2022/07/27 10:31:54;;;;;;;23.48;10.55;;;;;;;33.43;59.01;100521.75;4957384;28;66733;-35
2022/07/27 10:34:38;;;;;;;13.20;10.00;;;;;;;33.46;59.05;100523.16;4954291;28;69120;-35
2022/07/27 10:37:33;;;;;;;11.55;10.63;;;;;;;33.29;59.53;100524.00;5013767;28;66062;-35
2022/07/27 10:43:19;;;;;;;13.05;11.38;;;;;;;33.30;59.79;100522.91;4956574;28;66553;-35
2022/07/27 10:46:01;;;;;;;14.30;11.40;;;;;;;33.44;59.67;100536.19;4959307;28;70614;-35
2022/07/27 10:48:41;;;;;;;20.67;10.82;;;;;;;33.47;59.92;100541.13;5018844;28;65120;-34
2022/07/27 10:51:34;;;;;;;12.07;10.90;;;;;;;33.38;60.40;100563.28;4948945;28;69855;-35
2022/07/27 10:54:25;;;;;;;14.65;11.23;;;;;;;33.42;59.98;100560.06;4958565;28;65833;-34
2022/07/27 10:57:02;;;;;;;12.98;11.40;;;;;;;33.47;60.08;100571.03;4952432;28;69826;-34
2022/07/27 10:59:54;;;;;;;18.23;11.18;;;;;;;33.35;60.64;100566.50;4955171;28;65978;-35
2022/07/27 11:02:45;;;;;;;11.33;10.53;;;;;;;33.43;60.13;100567.16;4959636;28;70253;-37
2022/07/27 11:05:21;;;;;;;12.60;11.10;;;;;;;33.43;60.57;100561.72;4957212;28;65479;-36
2022/07/27 11:08:18;;;;;;;16.02;10.63;;;;;;;33.36;60.38;100551.81;4956180;28;70895;-35
2022/07/27 11:11:10;;;;;;;10.63;9.70;;;;;;;33.44;60.30;100574.25;5004749;28;66011;-34
2022/07/27 11:13:52;;;;;;;13.30;10.05;;;;;;;33.11;60.24;100516.84;4949914;28;69318;-37
2022/07/27 11:16:28;;;;;;;10.52;9.40;;;;;;;33.36;60.38;100567.31;4955620;28;67337;-35
2022/07/27 11:19:27;;;;;;;9.57;8.85;;;;;;;33.43;60.52;100583.47;4948644;28;69162;-37
2022/07/27 11:22:04;;;;;;;18.50;8.02;;;;;;;33.42;60.43;100584.53;4952540;28;65371;-35
2022/07/27 11:24:58;;;;;;;9.57;8.73;;;;;;;33.40;60.58;100583.94;4952975;28;69327;-36
2022/07/27 11:27:39;;;;;;;9.27;7.97;;;;;;;33.40;60.51;100579.34;4957621;28;66283;-34
2022/07/27 11:30:26;;;;;;;9.15;7.72;;;;;;;33.35;60.51;100579.28;4954990;28;70095;-35
2022/07/27 11:33:03;;;;;;;8.57;7.75;;;;;;;33.37;60.64;100583.38;4947723;28;65548;-35
2022/07/27 11:35:53;;;;;;;7.82;7.13;;;;;;;33.32;60.35;100583.31;4955991;28;70653;-34
2022/07/27 11:38:48;;;;;;;10.00;7.30;;;;;;;33.33;60.71;100584.94;4953557;28;66058;-36
2022/07/27 11:41:33;;;;;;;8.07;7.47;;;;;;;33.31;60.68;100581.63;4952293;28;69982;-35
2022/07/27 11:44:40;;;;;;;7.57;7.05;;;;;;;33.02;60.69;100523.75;5004976;28;65719;-35
2022/07/27 11:47:22;;;;;;;7.65;6.95;;;;;;;33.34;60.60;100575.69;4958209;28;70439;-37
2022/07/27 11:50:14;;;;;;;7.88;7.13;;;;;;;33.30;61.13;100573.75;4939628;28;66371;-35
2022/07/27 11:52:57;;;;;;;6.78;6.32;;;;;;;32.97;61.00;100522.81;5002249;28;70887;-36
2022/07/27 11:55:32;;;;;;;6.60;6.20;;;;;;;33.32;60.93;100571.56;4958346;28;65579;-36
2022/07/27 11:58:05;;;;;;;6.28;5.72;;;;;;;33.32;61.02;100567.00;5012595;28;69702;-35
2022/07/27 12:00:46;;;;;;;6.63;6.13;;;;;;;33.33;60.88;100565.91;4957717;28;66090;-39
2022/07/27 12:03:22;;;;;;;6.50;5.95;;;;;;;33.33;60.63;100571.34;5019682;28;69152;-38
2022/07/27 12:06:19;;;;;;;8.32;6.63;;;;;;;33.30;60.99;100568.28;5023949;28;66178;-37
2022/07/27 12:08:56;;;;;;;7.43;5.45;;;;;;;33.30;60.94;100580.00;4956595;28;69808;-35
2022/07/27 12:11:54;;;;;;;7.90;6.65;;;;;;;33.08;62.24;100592.63;5015431;28;65593;-37
2022/07/27 12:14:41;;;;;;;12.32;7.22;;;;;;;33.06;63.94;100600.19;4953158;28;70339;-36
2022/07/27 12:17:17;;;;;;;7.10;6.30;;;;;;;32.94;65.02;100603.72;4959091;28;66641;-36
2022/07/27 12:20:11;;;;;;;8.05;6.30;;;;;;;32.83;65.64;100612.75;4961196;28;70170;-35